createdAt,value
2023-03-13T02:32:39.098Z,56.48
2023-03-13T02:37:20.741Z,53.11
2023-03-13T02:42:50.992Z,52.95
2023-03-13T02:45:20.732Z,51.92
2023-03-13T02:49:00.720Z,51.15
2023-03-13T02:51:42.420Z,50.82
2023-03-13T02:54:18.872Z,48.65
2023-03-13T02:56:52.187Z,50.62
2023-03-13T02:59:21.320Z,50.76
2023-03-13T03:01:53.599Z,49.02
2023-03-13T03:04:28.197Z,47.12
2023-03-13T03:06:58.722Z,48.13
2023-03-13T03:09:28.250Z,47.46
2023-03-13T03:12:01.545Z,47.71
2023-03-13T03:14:31.544Z,47.33
2023-03-13T03:17:00.182Z,46.20
2023-03-13T03:19:31.441Z,46.34
2023-03-13T03:22:03.457Z,46.02
2023-03-13T03:24:34.114Z,44.82
2023-03-13T03:27:02.898Z,44.51
2023-03-13T03:29:38.845Z,43.98
2023-03-13T03:32:08.761Z,45.13
2023-03-13T03:34:37.895Z,44.60
2023-03-13T03:37:07.264Z,43.86
2023-03-13T03:39:37.500Z,44.47
2023-03-13T03:42:08.282Z,42.44
2023-03-13T03:44:37.379Z,42.70
2023-03-13T03:47:07.255Z,43.57
2023-03-13T03:49:41.448Z,42.10
2023-03-13T03:52:13.169Z,42.96
2023-03-13T03:54:44.604Z,41.59
2023-03-13T03:57:14.864Z,41.07
2023-03-13T03:59:46.830Z,42.53
2023-03-13T04:02:16.109Z,42.26
2023-03-13T04:04:45.574Z,42.34
2023-03-13T04:07:28.890Z,41.08
2023-03-13T04:09:57.931Z,40.64
2023-03-13T04:12:37.447Z,41.28
2023-03-13T04:15:07.056Z,42.66
2023-03-13T04:17:36.547Z,42.76
2023-03-13T04:20:08.522Z,42.73
2023-03-13T04:22:38.418Z,42.28
2023-03-13T04:25:09.437Z,43.04
2023-03-13T04:27:39.673Z,43.32
2023-03-13T04:30:11.863Z,41.91
2023-03-13T04:33:05.048Z,42.81
2023-03-13T04:35:34.564Z,42.29
2023-03-13T04:38:15.910Z,43.24
2023-03-13T04:41:17.521Z,43.68
2023-03-13T04:44:05.041Z,44.42
2023-03-13T04:46:42.627Z,41.53
2023-03-13T04:49:26.721Z,44.67
2023-03-13T04:52:14.722Z,43.93
2023-03-13T04:55:04.151Z,43.87
2023-03-13T04:58:08.737Z,42.76
2023-03-13T05:00:58.510Z,46.57
2023-03-13T05:04:00.800Z,43.70
2023-03-13T05:06:44.535Z,46.46
2023-03-13T05:09:33.849Z,44.11
2023-03-13T05:12:20.676Z,41.76
2023-03-13T05:15:08.350Z,44.38
2023-03-13T05:17:55.939Z,44.96
2023-03-13T05:20:40.322Z,43.73
2023-03-13T05:23:30.738Z,43.75
2023-03-13T05:26:00.266Z,43.51
2023-03-13T05:28:54.914Z,43.71
2023-03-13T05:31:35.017Z,45.86
2023-03-13T05:34:22.439Z,44.09
2023-03-13T05:37:14.473Z,47.45
2023-03-13T05:39:46.651Z,44.56
2023-03-13T05:42:29.702Z,44.75
2023-03-13T05:45:17.150Z,44.17
2023-03-13T05:47:46.897Z,44.08
2023-03-13T05:50:42.107Z,43.16
2023-03-13T05:53:26.590Z,41.13
2023-03-13T05:56:24.070Z,42.00
2023-03-13T05:59:13.735Z,40.87
2023-03-13T06:01:45.751Z,39.57
2023-03-13T06:04:41.212Z,40.12
2023-03-13T06:07:10.258Z,38.12
2023-03-13T06:09:39.486Z,40.33
2023-03-13T06:12:11.902Z,38.83
2023-03-13T06:14:41.758Z,38.82
2023-03-13T06:17:16.575Z,37.26
2023-03-13T06:19:47.314Z,36.46
2023-03-13T06:22:18.751Z,36.57
2023-03-13T06:24:50.405Z,37.88
2023-03-13T06:27:19.318Z,34.04
2023-03-13T06:29:48.413Z,34.06
2023-03-13T06:32:18.026Z,34.57
2023-03-13T06:34:46.893Z,34.86
2023-03-13T06:37:16.878Z,31.87
2023-03-13T06:39:45.764Z,34.49
2023-03-13T06:42:14.649Z,33.02
2023-03-13T06:44:43.601Z,37.48
2023-03-13T06:47:15.352Z,34.98
2023-03-13T06:49:44.891Z,34.37
2023-03-13T06:52:14.083Z,31.50
2023-03-13T06:54:43.133Z,31.01
2023-03-13T06:57:12.870Z,31.83
2023-03-13T06:59:43.165Z,33.27
2023-03-13T07:02:13.857Z,32.33
2023-03-13T07:04:44.227Z,31.69
2023-03-13T07:07:25.811Z,31.37
2023-03-13T07:10:00.828Z,31.07
2023-03-13T07:12:29.546Z,30.36
2023-03-13T07:15:01.191Z,28.73
2023-03-13T07:17:30.323Z,32.69
2023-03-13T07:19:59.156Z,30.71
2023-03-13T07:22:28.550Z,31.12
2023-03-13T07:24:57.310Z,24.51
2023-03-13T07:27:26.599Z,27.90
2023-03-13T07:29:55.385Z,31.45
2023-03-13T07:32:24.337Z,34.62
2023-03-13T07:34:53.771Z,25.68
2023-03-13T07:37:22.995Z,26.97
2023-03-13T07:39:52.000Z,27.07
2023-03-13T07:42:20.760Z,29.41
2023-03-13T07:44:49.730Z,26.78
2023-03-13T07:47:18.628Z,28.30
2023-03-13T07:49:48.097Z,30.85
2023-03-13T07:52:17.202Z,30.51
2023-03-13T07:54:45.991Z,26.70
2023-03-13T07:57:15.529Z,31.00
2023-03-13T07:59:44.429Z,34.56
2023-03-13T08:02:15.049Z,30.40
2023-03-13T08:04:44.686Z,27.30
2023-03-13T08:07:14.131Z,28.56
2023-03-13T08:09:43.751Z,29.61
2023-03-13T08:12:12.584Z,33.38
2023-03-13T08:14:43.873Z,28.28
2023-03-13T08:17:13.042Z,30.76
2023-03-13T08:19:41.804Z,29.81
2023-03-13T08:22:10.563Z,30.02
2023-03-13T08:24:39.417Z,27.21
2023-03-13T08:27:08.397Z,27.18
2023-03-13T08:29:37.432Z,28.42
2023-03-13T08:32:06.944Z,30.00
2023-03-13T08:34:37.779Z,29.82
2023-03-13T08:37:06.559Z,29.82
2023-03-13T08:39:35.521Z,26.42
2023-03-13T08:42:04.567Z,31.32
2023-03-13T08:44:35.354Z,28.82
2023-03-13T08:47:07.961Z,33.63
2023-03-13T08:49:37.010Z,30.45
2023-03-13T08:52:07.018Z,30.26
2023-03-13T08:54:36.205Z,26.86
2023-03-13T08:57:05.674Z,29.28
2023-03-13T08:59:34.531Z,29.77
2023-03-13T09:02:09.524Z,30.17
2023-03-13T09:04:39.140Z,27.71
2023-03-13T09:07:07.912Z,30.42
2023-03-13T09:09:37.195Z,26.86
2023-03-13T09:12:06.813Z,26.98
2023-03-13T09:14:37.072Z,28.66
2023-03-13T09:17:06.784Z,24.50
2023-03-13T09:19:39.065Z,26.43
2023-03-13T09:22:10.542Z,28.52
2023-03-13T09:24:39.566Z,28.88
2023-03-13T09:27:08.713Z,27.93
2023-03-13T09:29:41.290Z,26.96
2023-03-13T09:32:12.125Z,27.18
2023-03-13T09:34:41.698Z,27.76
2023-03-13T09:37:10.502Z,30.08
2023-03-13T09:39:39.967Z,32.75
2023-03-13T09:42:33.705Z,29.64
2023-03-13T09:45:15.087Z,28.95
2023-03-13T09:47:56.491Z,31.53
2023-03-13T09:50:36.873Z,28.26
2023-03-13T09:53:16.613Z,29.39
2023-03-13T09:55:47.030Z,29.61
2023-03-13T09:58:22.581Z,29.92
2023-03-13T10:01:06.104Z,27.84
2023-03-13T10:03:50.222Z,27.80
2023-03-13T10:06:24.262Z,25.66
2023-03-13T10:08:53.826Z,28.42
2023-03-13T10:11:31.449Z,32.13
2023-03-13T10:14:32.548Z,29.45
2023-03-13T10:17:16.822Z,32.96
2023-03-13T10:19:48.617Z,35.43
2023-03-13T10:22:23.379Z,36.25
2023-03-13T10:25:24.074Z,35.44
2023-03-13T10:27:54.521Z,36.02
2023-03-13T10:30:28.210Z,36.69
2023-03-13T10:33:22.016Z,37.79
2023-03-13T10:36:03.809Z,43.34
2023-03-13T10:38:55.428Z,41.31
2023-03-13T10:41:31.832Z,44.16
2023-03-13T10:44:05.145Z,42.08
2023-03-13T10:46:36.825Z,41.80
2023-03-13T10:49:14.872Z,42.91
2023-03-13T10:51:53.423Z,42.13
2023-03-13T10:54:38.341Z,43.43
2023-03-13T10:57:25.153Z,43.87
2023-03-13T10:59:55.501Z,46.23
2023-03-13T11:02:36.296Z,43.57
2023-03-13T11:05:34.142Z,45.22
2023-03-13T11:08:24.535Z,46.58
2023-03-13T11:11:03.130Z,48.08
2023-03-13T11:13:45.119Z,44.87
2023-03-13T11:16:30.782Z,44.89
2023-03-13T11:19:14.704Z,47.41
2023-03-13T11:22:12.534Z,48.03
2023-03-13T11:25:05.431Z,46.03
2023-03-13T11:27:48.050Z,47.13
2023-03-13T11:30:41.458Z,46.59
2023-03-13T11:33:27.293Z,49.75
2023-03-13T11:36:11.556Z,47.83
2023-03-13T11:38:54.785Z,48.64
2023-03-13T11:41:50.069Z,48.52
2023-03-13T11:44:44.494Z,54.65
2023-03-13T11:47:49.787Z,51.25
2023-03-13T11:50:53.365Z,51.37
2023-03-13T11:53:40.663Z,53.45
2023-03-13T11:56:28.791Z,53.89
2023-03-13T11:59:03.777Z,52.21
2023-03-13T12:01:53.207Z,53.02
2023-03-13T12:04:35.844Z,51.49
2023-03-13T12:07:27.523Z,52.30
2023-03-13T12:10:19.600Z,52.26
2023-03-13T12:13:05.207Z,51.06
2023-03-13T12:15:47.434Z,51.30
2023-03-13T12:18:39.769Z,51.21
2023-03-13T12:21:31.423Z,52.91
2023-03-13T12:24:58.321Z,50.55
2023-03-13T12:27:42.348Z,52.92
2023-03-13T12:30:34.812Z,51.57
2023-03-13T12:33:12.387Z,53.90
2023-03-13T12:35:45.905Z,53.95
2023-03-13T12:38:40.595Z,53.09
2023-03-13T12:41:25.660Z,52.87
2023-03-13T12:44:08.232Z,54.32
2023-03-13T12:46:47.840Z,54.45
2023-03-13T12:49:39.263Z,55.78
2023-03-13T12:52:29.944Z,56.74
2023-03-13T12:55:28.844Z,57.03
2023-03-13T12:58:20.009Z,57.95
2023-03-13T13:00:51.374Z,57.95
2023-03-13T13:03:26.730Z,57.71
2023-03-13T13:06:10.638Z,59.02
2023-03-13T13:08:56.382Z,59.63
2023-03-13T13:11:48.706Z,61.19
2023-03-13T13:14:20.752Z,60.48
2023-03-13T13:17:36.027Z,61.64
2023-03-13T13:20:35.188Z,62.52
2023-03-13T13:23:26.631Z,63.28
2023-03-13T13:26:04.065Z,64.16
2023-03-13T13:28:37.150Z,65.56
2023-03-13T13:31:44.681Z,66.09
2023-03-13T13:34:32.113Z,67.32
2023-03-13T13:37:03.240Z,67.64
2023-03-13T13:39:49.109Z,66.88
2023-03-13T13:42:55.619Z,67.73
2023-03-13T13:46:00.952Z,68.29
2023-03-13T13:48:37.672Z,67.31
2023-03-13T13:51:13.103Z,67.65
2023-03-13T13:53:56.857Z,68.21
2023-03-13T13:56:42.030Z,68.42
2023-03-13T13:59:24.878Z,67.75
2023-03-13T14:02:10.652Z,67.59
2023-03-13T14:05:01.775Z,68.43
2023-03-13T14:07:50.178Z,69.22
2023-03-13T14:10:43.292Z,69.32
2023-03-13T14:13:22.306Z,69.77
2023-03-13T14:15:56.031Z,70.15
2023-03-13T14:18:30.599Z,71.07
2023-03-13T14:21:04.911Z,71.31
2023-03-13T14:23:34.013Z,71.91
2023-03-13T14:26:21.763Z,72.28
2023-03-13T14:28:59.739Z,72.89
2023-03-13T14:31:31.665Z,72.79
2023-03-13T14:34:04.176Z,72.46
2023-03-13T14:37:18.085Z,72.19
2023-03-13T14:39:49.729Z,72.22
2023-03-13T14:42:20.273Z,72.06
2023-03-13T14:44:51.161Z,72.11
2023-03-13T14:47:28.023Z,72.02
2023-03-13T14:50:05.772Z,71.01
2023-03-13T14:52:36.371Z,71.02
2023-03-13T14:55:09.973Z,70.53
2023-03-13T14:58:00.551Z,69.67
2023-03-13T15:00:33.904Z,69.30
2023-03-13T15:03:18.408Z,69.32
2023-03-13T15:06:04.252Z,69.49
2023-03-13T15:08:35.392Z,69.71
2023-03-13T15:11:29.910Z,68.95
2023-03-13T15:13:59.592Z,69.24
2023-03-13T15:16:30.339Z,69.24
2023-03-13T15:19:00.003Z,69.22
2023-03-13T15:21:35.943Z,69.63
2023-03-13T15:24:15.096Z,68.35
2023-03-13T15:26:44.294Z,67.40
2023-03-13T15:29:13.624Z,67.43
2023-03-13T15:31:43.013Z,67.75
2023-03-13T15:34:15.038Z,67.52
2023-03-13T15:36:57.451Z,65.79
2023-03-13T15:39:29.699Z,64.84
2023-03-13T15:41:59.540Z,63.84
2023-03-13T15:44:28.980Z,61.48
2023-03-13T15:46:59.240Z,59.14
2023-03-13T15:50:06.682Z,52.42
2023-03-13T15:52:38.228Z,52.20
2023-03-13T15:56:04.395Z,56.73
2023-03-13T15:58:35.768Z,63.04
2023-03-13T16:01:06.099Z,67.92
2023-03-13T16:03:36.645Z,70.28
2023-03-13T16:06:21.428Z,73.46
2023-03-13T16:09:14.436Z,75.15
2023-03-13T16:11:46.628Z,77.04
2023-03-13T16:14:16.171Z,78.68
2023-03-13T16:17:24.352Z,79.58
2023-03-13T16:19:57.041Z,80.61
2023-03-13T16:22:27.915Z,79.50
2023-03-13T16:24:59.629Z,80.27
2023-03-13T16:27:32.086Z,80.95
2023-03-13T16:30:08.313Z,80.97
2023-03-13T16:32:37.563Z,83.14
2023-03-13T16:35:06.644Z,83.79
2023-03-13T16:37:35.930Z,85.05
2023-03-13T16:40:07.095Z,83.43
2023-03-13T16:42:36.571Z,84.10
2023-03-13T16:45:06.040Z,83.90
2023-03-13T16:47:36.831Z,84.43
2023-03-13T16:50:23.300Z,85.35
2023-03-13T16:52:53.854Z,85.80
2023-03-13T16:55:29.534Z,85.89
2023-03-13T16:57:59.913Z,86.45
2023-03-13T17:00:31.136Z,88.06
2023-03-13T17:03:03.080Z,88.09
2023-03-13T17:05:32.491Z,88.74
2023-03-13T17:08:01.507Z,88.52
2023-03-13T17:10:32.652Z,87.42
2023-03-13T17:13:02.333Z,88.05
2023-03-13T17:15:31.223Z,89.25
2023-03-13T17:18:00.442Z,88.57
2023-03-13T17:20:31.989Z,89.56
2023-03-13T17:23:05.082Z,91.25
2023-03-13T17:25:34.097Z,89.85
2023-03-13T17:28:02.771Z,91.18
2023-03-13T17:30:32.809Z,93.91
2023-03-13T17:33:01.892Z,93.97
2023-03-13T17:35:31.765Z,96.35
2023-03-13T17:38:00.973Z,96.67
2023-03-13T17:40:33.316Z,97.29
2023-03-13T17:43:02.190Z,99.71
2023-03-13T17:45:32.254Z,100.00
2023-03-13T17:48:01.637Z,100.00
2023-03-13T17:50:30.663Z,98.53
2023-03-13T17:52:59.764Z,98.72
2023-03-13T17:55:29.202Z,99.07
2023-03-13T17:57:58.291Z,99.94
2023-03-13T18:00:32.752Z,100.00
2023-03-13T18:03:03.018Z,100.00
2023-03-13T18:05:32.324Z,100.00
2023-03-13T18:08:01.249Z,100.00
2023-03-13T18:10:32.545Z,100.00
2023-03-13T18:13:02.092Z,100.00
2023-03-13T18:15:30.800Z,100.00
2023-03-13T18:17:59.616Z,100.00
2023-03-13T18:20:31.578Z,100.00
2023-03-13T18:23:01.353Z,100.00
2023-03-13T18:25:30.961Z,100.00
2023-03-13T18:28:00.642Z,100.00
2023-03-13T18:30:29.559Z,100.00
2023-03-13T18:32:58.477Z,98.31
2023-03-13T18:35:27.225Z,96.45
2023-03-13T18:37:55.999Z,94.99
2023-03-13T18:40:27.981Z,95.47
2023-03-13T18:42:57.241Z,98.24
2023-03-13T18:45:27.762Z,99.59
2023-03-13T18:47:57.143Z,100.00
2023-03-13T18:50:28.430Z,100.00
2023-03-13T18:52:59.778Z,100.00
2023-03-13T18:55:31.455Z,100.00
2023-03-13T18:58:00.624Z,98.34
2023-03-13T19:00:31.785Z,96.41
2023-03-13T19:03:01.193Z,97.64
2023-03-13T19:05:29.865Z,98.68
2023-03-13T19:07:58.872Z,100.00
2023-03-13T19:10:33.889Z,100.00
2023-03-13T19:13:02.798Z,100.00
2023-03-13T19:15:32.782Z,100.00
2023-03-13T19:18:03.626Z,100.00
2023-03-13T19:20:33.099Z,100.00
2023-03-13T19:23:01.918Z,100.00
2023-03-13T19:25:31.054Z,100.00
2023-03-13T19:27:59.806Z,100.00
2023-03-13T19:30:28.898Z,100.00
2023-03-13T19:32:58.185Z,100.00
2023-03-13T19:35:27.767Z,100.00
2023-03-13T19:37:57.081Z,100.00
2023-03-13T19:40:29.708Z,100.00
2023-03-13T19:42:58.542Z,100.00
2023-03-13T19:45:28.583Z,100.00
2023-03-13T19:47:57.471Z,100.00
2023-03-13T19:50:31.922Z,100.00
2023-03-13T19:53:00.994Z,99.55
2023-03-13T19:55:29.648Z,96.00
2023-03-13T19:57:58.915Z,92.40
2023-03-13T20:00:30.929Z,93.89
2023-03-13T20:03:00.446Z,92.94
2023-03-13T20:05:29.672Z,87.11
2023-03-13T20:07:59.490Z,67.72
2023-03-13T20:10:28.343Z,60.80
2023-03-13T20:12:58.712Z,59.21
2023-03-13T20:15:27.461Z,58.40
2023-03-13T20:17:56.835Z,59.50
2023-03-13T20:20:25.663Z,60.45
2023-03-13T20:22:55.145Z,61.68
2023-03-13T20:25:25.292Z,62.52
2023-03-13T20:27:54.490Z,63.64
2023-03-13T20:30:24.241Z,63.20
2023-03-13T20:32:59.482Z,63.69
2023-03-13T20:35:29.831Z,61.75
2023-03-13T20:38:00.626Z,60.67
2023-03-13T20:40:30.124Z,59.30
2023-03-13T20:42:59.719Z,58.50
2023-03-13T20:45:33.124Z,57.23
2023-03-13T20:48:02.205Z,55.67
2023-03-13T20:50:30.962Z,52.65
2023-03-13T20:53:00.143Z,51.36
2023-03-13T20:55:31.243Z,50.61
2023-03-13T20:58:01.176Z,49.40
2023-03-13T21:00:29.885Z,47.69
2023-03-13T21:02:58.776Z,47.55
2023-03-13T21:05:28.286Z,45.74
2023-03-13T21:07:57.603Z,44.64
2023-03-13T21:10:26.394Z,42.79
2023-03-13T21:12:55.510Z,42.93
2023-03-13T21:15:24.546Z,42.07
2023-03-13T21:17:54.664Z,40.19
2023-03-13T21:20:24.755Z,39.96
2023-03-13T21:22:53.459Z,39.40
2023-03-13T21:25:23.776Z,39.60
2023-03-13T21:27:52.494Z,39.79
2023-03-13T21:30:23.089Z,39.39
2023-03-13T21:32:52.127Z,39.49
2023-03-13T21:35:21.646Z,39.02
2023-03-13T21:37:50.921Z,38.81
2023-03-13T21:40:19.845Z,39.69
2023-03-13T21:42:51.368Z,40.02
2023-03-13T21:45:20.996Z,40.37
2023-03-13T21:47:49.607Z,41.22
2023-03-13T21:52:53.021Z,41.46
2023-03-13T21:55:22.428Z,41.11
2023-03-13T21:57:51.484Z,41.67
2023-03-13T22:00:20.400Z,42.32
2023-03-13T22:02:49.434Z,43.99
